sensor_id;sensor_type;location;lat;lon;timestamp;P1;durP1;ratioP1;P2;durP2;ratioP2
40807;SDS011;26523;52.504;13.498;2024-01-15T00:01:57;13.57;;;5.35;;
40807;SDS011;26523;52.504;13.498;2024-01-15T00:04:23;12.23;;;4.60;;
40807;SDS011;26523;52.504;13.498;2024-01-15T00:06:49;9.55;;;4.03;;
40807;SDS011;26523;52.504;13.498;2024-01-15T00:09:15;13.98;;;5.68;;
40807;SDS011;26523;52.504;13.498;2024-01-15T00:11:41;11.52;;;4.55;;
40807;SDS011;26523;52.504;13.498;2024-01-15T00:14:08;11.02;;;4.88;;
40807;SDS011;26523;52.504;13.498;2024-01-15T00:16:34;10.65;;;4.57;;
40807;SDS011;26523;52.504;13.498;2024-01-15T00:18:59;8.15;;;4.10;;
40807;SDS011;26523;52.504;13.498;2024-01-15T00:21:25;11.15;;;4.43;;
40807;SDS011;26523;52.504;13.498;2024-01-15T00:23:51;13.20;;;4.03;;
40807;SDS011;26523;52.504;13.498;2024-01-15T00:26:16;13.30;;;4.68;;
40807;SDS011;26523;52.504;13.498;2024-01-15T00:28:42;12.90;;;4.20;;
40807;SDS011;26523;52.504;13.498;2024-01-15T00:31:08;12.25;;;4.38;;
40807;SDS011;26523;52.504;13.498;2024-01-15T00:33:34;12.60;;;4.55;;
40807;SDS011;26523;52.504;13.498;2024-01-15T00:36:00;10.60;;;4.35;;
40807;SDS011;26523;52.504;13.498;2024-01-15T00:38:26;9.25;;;4.22;;
40807;SDS011;26523;52.504;13.498;2024-01-15T00:40:51;9.90;;;4.50;;
40807;SDS011;26523;52.504;13.498;2024-01-15T00:43:17;11.32;;;5.05;;
40807;SDS011;26523;52.504;13.498;2024-01-15T00:45:44;8.15;;;3.75;;
40807;SDS011;26523;52.504;13.498;2024-01-15T00:48:10;11.15;;;4.82;;
40807;SDS011;26523;52.504;13.498;2024-01-15T00:50:35;10.90;;;4.90;;
40807;SDS011;26523;52.504;13.498;2024-01-15T00:53:01;10.57;;;4.40;;
40807;SDS011;26523;52.504;13.498;2024-01-15T00:55:28;13.18;;;4.72;;
40807;SDS011;26523;52.504;13.498;2024-01-15T00:57:54;12.32;;;4.22;;
40807;SDS011;26523;52.504;13.498;2024-01-15T01:00:20;9.57;;;4.13;;
40807;SDS011;26523;52.504;13.498;2024-01-15T01:02:46;12.77;;;4.53;;
40807;SDS011;26523;52.504;13.498;2024-01-15T01:05:11;8.77;;;4.03;;
40807;SDS011;26523;52.504;13.498;2024-01-15T01:07:37;12.10;;;4.10;;
40807;SDS011;26523;52.504;13.498;2024-01-15T01:10:03;10.48;;;4.10;;
40807;SDS011;26523;52.504;13.498;2024-01-15T01:12:29;10.93;;;4.47;;
40807;SDS011;26523;52.504;13.498;2024-01-15T01:14:55;12.43;;;4.38;;
40807;SDS011;26523;52.504;13.498;2024-01-15T01:17:21;13.27;;;4.80;;
40807;SDS011;26523;52.504;13.498;2024-01-15T01:19:47;10.00;;;4.55;;
40807;SDS011;26523;52.504;13.498;2024-01-15T01:22:12;9.10;;;4.50;;
40807;SDS011;26523;52.504;13.498;2024-01-15T01:24:38;12.98;;;5.50;;
40807;SDS011;26523;52.504;13.498;2024-01-15T01:27:03;9.95;;;3.88;;
40807;SDS011;26523;52.504;13.498;2024-01-15T01:29:29;11.68;;;4.57;;
40807;SDS011;26523;52.504;13.498;2024-01-15T01:31:55;12.30;;;3.58;;
40807;SDS011;26523;52.504;13.498;2024-01-15T01:34:21;8.95;;;4.18;;
40807;SDS011;26523;52.504;13.498;2024-01-15T01:36:47;10.48;;;4.45;;
40807;SDS011;26523;52.504;13.498;2024-01-15T01:39:13;15.30;;;5.20;;
40807;SDS011;26523;52.504;13.498;2024-01-15T01:41:38;10.80;;;5.05;;
40807;SDS011;26523;52.504;13.498;2024-01-15T01:44:04;9.23;;;3.58;;
40807;SDS011;26523;52.504;13.498;2024-01-15T01:46:30;11.93;;;4.22;;
40807;SDS011;26523;52.504;13.498;2024-01-15T01:48:56;13.95;;;4.53;;
40807;SDS011;26523;52.504;13.498;2024-01-15T01:51:22;9.05;;;3.72;;
40807;SDS011;26523;52.504;13.498;2024-01-15T01:53:50;12.43;;;5.45;;
40807;SDS011;26523;52.504;13.498;2024-01-15T01:56:16;10.13;;;3.40;;
40807;SDS011;26523;52.504;13.498;2024-01-15T01:58:43;9.93;;;3.85;;
40807;SDS011;26523;52.504;13.498;2024-01-15T02:01:10;10.10;;;4.25;;
40807;SDS011;26523;52.504;13.498;2024-01-15T02:03:37;11.55;;;4.45;;
40807;SDS011;26523;52.504;13.498;2024-01-15T02:06:04;14.55;;;4.90;;
40807;SDS011;26523;52.504;13.498;2024-01-15T02:08:30;11.32;;;4.45;;
40807;SDS011;26523;52.504;13.498;2024-01-15T02:10:56;10.07;;;4.68;;
40807;SDS011;26523;52.504;13.498;2024-01-15T02:13:22;10.82;;;3.92;;
40807;SDS011;26523;52.504;13.498;2024-01-15T02:15:47;12.38;;;5.22;;
40807;SDS011;26523;52.504;13.498;2024-01-15T02:18:13;11.27;;;4.88;;
40807;SDS011;26523;52.504;13.498;2024-01-15T02:20:39;12.23;;;5.70;;
40807;SDS011;26523;52.504;13.498;2024-01-15T02:25:34;10.27;;;4.07;;
40807;SDS011;26523;52.504;13.498;2024-01-15T02:28:00;8.80;;;3.80;;
40807;SDS011;26523;52.504;13.498;2024-01-15T02:30:26;8.10;;;4.05;;
40807;SDS011;26523;52.504;13.498;2024-01-15T02:32:53;11.82;;;3.83;;
40807;SDS011;26523;52.504;13.498;2024-01-15T02:35:19;9.65;;;4.20;;
40807;SDS011;26523;52.504;13.498;2024-01-15T02:37:44;9.77;;;4.22;;
40807;SDS011;26523;52.504;13.498;2024-01-15T02:40:10;13.68;;;4.05;;
40807;SDS011;26523;52.504;13.498;2024-01-15T02:42:36;11.10;;;4.28;;
40807;SDS011;26523;52.504;13.498;2024-01-15T02:45:02;9.55;;;4.00;;
40807;SDS011;26523;52.504;13.498;2024-01-15T02:47:28;14.40;;;3.92;;
40807;SDS011;26523;52.504;13.498;2024-01-15T02:49:53;10.88;;;2.95;;
40807;SDS011;26523;52.504;13.498;2024-01-15T02:52:19;6.72;;;3.33;;
40807;SDS011;26523;52.504;13.498;2024-01-15T02:54:45;8.63;;;3.92;;
40807;SDS011;26523;52.504;13.498;2024-01-15T02:57:10;10.35;;;3.53;;
40807;SDS011;26523;52.504;13.498;2024-01-15T02:59:36;8.70;;;3.70;;
40807;SDS011;26523;52.504;13.498;2024-01-15T03:02:02;9.38;;;3.58;;
40807;SDS011;26523;52.504;13.498;2024-01-15T03:04:27;8.15;;;3.50;;
40807;SDS011;26523;52.504;13.498;2024-01-15T03:06:53;8.85;;;3.65;;
40807;SDS011;26523;52.504;13.498;2024-01-15T03:09:19;8.88;;;3.25;;
40807;SDS011;26523;52.504;13.498;2024-01-15T03:11:44;9.60;;;3.80;;
40807;SDS011;26523;52.504;13.498;2024-01-15T03:14:10;10.23;;;3.60;;
40807;SDS011;26523;52.504;13.498;2024-01-15T03:16:35;9.70;;;3.78;;
40807;SDS011;26523;52.504;13.498;2024-01-15T03:19:01;7.00;;;3.42;;
40807;SDS011;26523;52.504;13.498;2024-01-15T03:21:27;6.75;;;3.08;;
40807;SDS011;26523;52.504;13.498;2024-01-15T03:23:52;10.85;;;3.75;;
40807;SDS011;26523;52.504;13.498;2024-01-15T03:26:18;7.75;;;3.22;;
40807;SDS011;26523;52.504;13.498;2024-01-15T03:28:44;8.32;;;3.10;;
40807;SDS011;26523;52.504;13.498;2024-01-15T03:31:09;10.02;;;3.60;;
40807;SDS011;26523;52.504;13.498;2024-01-15T03:33:35;10.50;;;4.18;;
40807;SDS011;26523;52.504;13.498;2024-01-15T03:36:00;8.00;;;3.08;;
40807;SDS011;26523;52.504;13.498;2024-01-15T03:38:27;9.88;;;3.55;;
40807;SDS011;26523;52.504;13.498;2024-01-15T03:40:54;10.88;;;3.70;;
40807;SDS011;26523;52.504;13.498;2024-01-15T03:43:19;8.90;;;3.47;;
40807;SDS011;26523;52.504;13.498;2024-01-15T03:45:45;8.60;;;3.80;;
40807;SDS011;26523;52.504;13.498;2024-01-15T03:48:11;9.85;;;2.72;;
40807;SDS011;26523;52.504;13.498;2024-01-15T03:50:36;9.15;;;3.00;;
40807;SDS011;26523;52.504;13.498;2024-01-15T03:53:02;5.47;;;2.92;;
40807;SDS011;26523;52.504;13.498;2024-01-15T03:55:28;5.90;;;2.78;;
40807;SDS011;26523;52.504;13.498;2024-01-15T03:57:53;10.60;;;3.58;;
40807;SDS011;26523;52.504;13.498;2024-01-15T04:00:19;7.32;;;2.80;;
40807;SDS011;26523;52.504;13.498;2024-01-15T04:02:45;5.07;;;2.40;;
40807;SDS011;26523;52.504;13.498;2024-01-15T04:05:11;18.42;;;3.38;;
40807;SDS011;26523;52.504;13.498;2024-01-15T04:07:36;6.28;;;2.70;;
40807;SDS011;26523;52.504;13.498;2024-01-15T04:10:02;6.25;;;2.90;;
40807;SDS011;26523;52.504;13.498;2024-01-15T04:12:28;8.40;;;2.65;;
40807;SDS011;26523;52.504;13.498;2024-01-15T04:14:53;6.40;;;2.42;;
40807;SDS011;26523;52.504;13.498;2024-01-15T04:17:19;10.43;;;3.50;;
40807;SDS011;26523;52.504;13.498;2024-01-15T04:19:46;6.78;;;2.65;;
40807;SDS011;26523;52.504;13.498;2024-01-15T04:22:13;12.20;;;3.33;;
40807;SDS011;26523;52.504;13.498;2024-01-15T04:24:38;7.55;;;2.90;;
40807;SDS011;26523;52.504;13.498;2024-01-15T04:27:04;6.05;;;2.47;;
40807;SDS011;26523;52.504;13.498;2024-01-15T04:29:30;8.43;;;2.40;;
40807;SDS011;26523;52.504;13.498;2024-01-15T04:31:56;7.50;;;2.38;;
40807;SDS011;26523;52.504;13.498;2024-01-15T04:34:21;11.77;;;2.60;;
40807;SDS011;26523;52.504;13.498;2024-01-15T04:36:47;6.68;;;2.33;;
40807;SDS011;26523;52.504;13.498;2024-01-15T04:39:13;6.10;;;2.03;;
40807;SDS011;26523;52.504;13.498;2024-01-15T04:41:38;10.63;;;3.03;;
40807;SDS011;26523;52.504;13.498;2024-01-15T04:44:04;6.03;;;2.33;;
40807;SDS011;26523;52.504;13.498;2024-01-15T04:46:30;6.22;;;2.50;;
40807;SDS011;26523;52.504;13.498;2024-01-15T04:48:55;5.38;;;2.15;;
40807;SDS011;26523;52.504;13.498;2024-01-15T04:51:21;7.20;;;2.50;;
40807;SDS011;26523;52.504;13.498;2024-01-15T04:53:47;9.02;;;2.25;;
40807;SDS011;26523;52.504;13.498;2024-01-15T04:56:12;11.77;;;2.38;;
40807;SDS011;26523;52.504;13.498;2024-01-15T04:58:38;3.45;;;1.55;;
40807;SDS011;26523;52.504;13.498;2024-01-15T05:01:03;7.95;;;2.40;;
40807;SDS011;26523;52.504;13.498;2024-01-15T05:03:29;5.30;;;1.63;;
40807;SDS011;26523;52.504;13.498;2024-01-15T05:05:55;3.75;;;1.58;;
40807;SDS011;26523;52.504;13.498;2024-01-15T05:08:20;6.95;;;2.20;;
40807;SDS011;26523;52.504;13.498;2024-01-15T05:10:47;3.13;;;1.42;;
40807;SDS011;26523;52.504;13.498;2024-01-15T05:13:13;6.82;;;1.83;;
40807;SDS011;26523;52.504;13.498;2024-01-15T05:15:38;4.40;;;1.52;;
40807;SDS011;26523;52.504;13.498;2024-01-15T05:18:04;4.28;;;1.90;;
40807;SDS011;26523;52.504;13.498;2024-01-15T05:20:31;9.27;;;1.75;;
40807;SDS011;26523;52.504;13.498;2024-01-15T05:22:56;4.38;;;1.60;;
40807;SDS011;26523;52.504;13.498;2024-01-15T05:25:22;4.70;;;1.50;;
40807;SDS011;26523;52.504;13.498;2024-01-15T05:27:48;11.30;;;2.00;;
40807;SDS011;26523;52.504;13.498;2024-01-15T05:30:13;7.80;;;1.90;;
40807;SDS011;26523;52.504;13.498;2024-01-15T05:32:39;5.97;;;1.77;;
40807;SDS011;26523;52.504;13.498;2024-01-15T05:35:05;7.47;;;1.58;;
40807;SDS011;26523;52.504;13.498;2024-01-15T05:37:31;14.48;;;2.38;;
40807;SDS011;26523;52.504;13.498;2024-01-15T05:39:56;3.17;;;1.10;;
40807;SDS011;26523;52.504;13.498;2024-01-15T05:42:22;8.60;;;1.80;;
40807;SDS011;26523;52.504;13.498;2024-01-15T05:44:48;4.82;;;1.55;;
40807;SDS011;26523;52.504;13.498;2024-01-15T05:47:13;6.90;;;1.67;;
40807;SDS011;26523;52.504;13.498;2024-01-15T05:49:39;2.97;;;1.30;;
40807;SDS011;26523;52.504;13.498;2024-01-15T05:52:05;3.65;;;1.17;;
40807;SDS011;26523;52.504;13.498;2024-01-15T05:54:31;3.53;;;1.48;;
40807;SDS011;26523;52.504;13.498;2024-01-15T05:56:56;6.30;;;1.15;;
40807;SDS011;26523;52.504;13.498;2024-01-15T05:59:22;2.33;;;1.13;;
40807;SDS011;26523;52.504;13.498;2024-01-15T06:01:48;6.10;;;1.65;;
40807;SDS011;26523;52.504;13.498;2024-01-15T06:04:13;4.63;;;1.60;;
40807;SDS011;26523;52.504;13.498;2024-01-15T06:06:39;2.72;;;1.40;;
40807;SDS011;26523;52.504;13.498;2024-01-15T06:09:05;5.03;;;1.50;;
40807;SDS011;26523;52.504;13.498;2024-01-15T06:11:33;2.67;;;1.25;;
40807;SDS011;26523;52.504;13.498;2024-01-15T06:13:59;9.43;;;1.67;;
40807;SDS011;26523;52.504;13.498;2024-01-15T06:16:28;4.95;;;1.60;;
40807;SDS011;26523;52.504;13.498;2024-01-15T06:18:54;4.78;;;1.88;;
40807;SDS011;26523;52.504;13.498;2024-01-15T06:21:20;7.18;;;1.48;;
40807;SDS011;26523;52.504;13.498;2024-01-15T06:23:45;6.93;;;1.88;;
40807;SDS011;26523;52.504;13.498;2024-01-15T06:26:11;8.00;;;1.38;;
40807;SDS011;26523;52.504;13.498;2024-01-15T06:28:37;1.80;;;1.02;;
40807;SDS011;26523;52.504;13.498;2024-01-15T06:31:03;6.28;;;1.10;;
40807;SDS011;26523;52.504;13.498;2024-01-15T06:33:29;6.63;;;1.13;;
40807;SDS011;26523;52.504;13.498;2024-01-15T06:35:54;5.70;;;1.30;;
40807;SDS011;26523;52.504;13.498;2024-01-15T06:38:23;6.32;;;1.40;;
40807;SDS011;26523;52.504;13.498;2024-01-15T06:40:50;3.75;;;1.17;;
40807;SDS011;26523;52.504;13.498;2024-01-15T06:43:17;5.55;;;1.08;;
40807;SDS011;26523;52.504;13.498;2024-01-15T06:45:45;9.90;;;0.93;;
40807;SDS011;26523;52.504;13.498;2024-01-15T06:48:11;2.17;;;1.10;;
40807;SDS011;26523;52.504;13.498;2024-01-15T06:50:41;4.28;;;1.00;;
40807;SDS011;26523;52.504;13.498;2024-01-15T06:53:07;7.82;;;1.48;;
40807;SDS011;26523;52.504;13.498;2024-01-15T06:55:33;3.55;;;1.38;;
40807;SDS011;26523;52.504;13.498;2024-01-15T06:57:59;7.13;;;1.20;;
40807;SDS011;26523;52.504;13.498;2024-01-15T07:00:25;2.75;;;1.17;;
40807;SDS011;26523;52.504;13.498;2024-01-15T07:02:51;5.10;;;0.98;;
40807;SDS011;26523;52.504;13.498;2024-01-15T07:05:17;2.72;;;1.15;;
40807;SDS011;26523;52.504;13.498;2024-01-15T07:07:45;4.25;;;1.23;;
40807;SDS011;26523;52.504;13.498;2024-01-15T07:10:12;1.10;;;0.60;;
40807;SDS011;26523;52.504;13.498;2024-01-15T07:12:38;8.20;;;1.40;;
40807;SDS011;26523;52.504;13.498;2024-01-15T07:15:04;7.78;;;1.58;;
40807;SDS011;26523;52.504;13.498;2024-01-15T07:17:32;4.93;;;0.60;;
40807;SDS011;26523;52.504;13.498;2024-01-15T07:19:58;6.85;;;1.23;;
40807;SDS011;26523;52.504;13.498;2024-01-15T07:22:23;8.55;;;1.92;;
40807;SDS011;26523;52.504;13.498;2024-01-15T07:24:49;4.78;;;0.85;;
40807;SDS011;26523;52.504;13.498;2024-01-15T07:27:15;1.80;;;0.93;;
40807;SDS011;26523;52.504;13.498;2024-01-15T07:29:41;7.43;;;1.35;;
40807;SDS011;26523;52.504;13.498;2024-01-15T07:32:08;4.13;;;1.48;;
40807;SDS011;26523;52.504;13.498;2024-01-15T07:34:35;8.95;;;1.38;;
40807;SDS011;26523;52.504;13.498;2024-01-15T07:37:00;5.45;;;1.08;;
40807;SDS011;26523;52.504;13.498;2024-01-15T07:39:29;3.00;;;0.93;;
40807;SDS011;26523;52.504;13.498;2024-01-15T07:41:56;5.20;;;1.90;;
40807;SDS011;26523;52.504;13.498;2024-01-15T07:44:22;7.30;;;1.42;;
40807;SDS011;26523;52.504;13.498;2024-01-15T07:46:47;3.40;;;1.05;;
40807;SDS011;26523;52.504;13.498;2024-01-15T07:49:13;7.93;;;1.48;;
40807;SDS011;26523;52.504;13.498;2024-01-15T07:51:39;12.60;;;1.55;;
40807;SDS011;26523;52.504;13.498;2024-01-15T07:54:05;9.10;;;2.00;;
40807;SDS011;26523;52.504;13.498;2024-01-15T07:56:31;9.40;;;1.08;;
40807;SDS011;26523;52.504;13.498;2024-01-15T07:58:57;13.73;;;1.40;;
40807;SDS011;26523;52.504;13.498;2024-01-15T08:01:23;9.60;;;1.63;;
40807;SDS011;26523;52.504;13.498;2024-01-15T08:03:49;4.40;;;0.90;;
40807;SDS011;26523;52.504;13.498;2024-01-15T08:06:19;3.65;;;1.35;;
40807;SDS011;26523;52.504;13.498;2024-01-15T08:08:46;10.55;;;1.42;;
40807;SDS011;26523;52.504;13.498;2024-01-15T08:11:12;8.23;;;1.50;;
40807;SDS011;26523;52.504;13.498;2024-01-15T08:13:38;2.17;;;0.73;;
40807;SDS011;26523;52.504;13.498;2024-01-15T08:16:04;8.32;;;1.42;;
40807;SDS011;26523;52.504;13.498;2024-01-15T08:18:30;3.08;;;1.20;;
40807;SDS011;26523;52.504;13.498;2024-01-15T08:20:55;7.35;;;0.85;;
40807;SDS011;26523;52.504;13.498;2024-01-15T08:23:21;2.97;;;0.63;;
40807;SDS011;26523;52.504;13.498;2024-01-15T08:25:47;10.13;;;1.45;;
40807;SDS011;26523;52.504;13.498;2024-01-15T08:28:13;3.92;;;1.30;;
40807;SDS011;26523;52.504;13.498;2024-01-15T08:30:38;7.22;;;1.55;;
40807;SDS011;26523;52.504;13.498;2024-01-15T08:33:04;8.00;;;1.10;;
40807;SDS011;26523;52.504;13.498;2024-01-15T08:35:30;1.88;;;0.80;;
40807;SDS011;26523;52.504;13.498;2024-01-15T08:37:57;8.02;;;1.17;;
40807;SDS011;26523;52.504;13.498;2024-01-15T08:40:25;7.03;;;1.38;;
40807;SDS011;26523;52.504;13.498;2024-01-15T08:42:50;7.80;;;1.20;;
40807;SDS011;26523;52.504;13.498;2024-01-15T08:45:16;7.40;;;1.30;;
40807;SDS011;26523;52.504;13.498;2024-01-15T08:47:41;3.13;;;0.98;;
40807;SDS011;26523;52.504;13.498;2024-01-15T08:50:07;8.13;;;1.80;;
40807;SDS011;26523;52.504;13.498;2024-01-15T08:52:35;16.00;;;1.33;;
40807;SDS011;26523;52.504;13.498;2024-01-15T08:55:02;5.93;;;1.25;;
40807;SDS011;26523;52.504;13.498;2024-01-15T08:57:30;8.80;;;1.13;;
40807;SDS011;26523;52.504;13.498;2024-01-15T08:59:57;6.45;;;1.30;;
40807;SDS011;26523;52.504;13.498;2024-01-15T09:02:23;4.63;;;2.17;;
40807;SDS011;26523;52.504;13.498;2024-01-15T09:04:49;5.05;;;1.15;;
40807;SDS011;26523;52.504;13.498;2024-01-15T09:07:14;6.32;;;1.17;;
40807;SDS011;26523;52.504;13.498;2024-01-15T09:09:43;9.10;;;1.05;;
40807;SDS011;26523;52.504;13.498;2024-01-15T09:12:14;6.05;;;1.25;;
40807;SDS011;26523;52.504;13.498;2024-01-15T09:14:40;9.00;;;1.42;;
40807;SDS011;26523;52.504;13.498;2024-01-15T09:17:07;5.57;;;1.25;;
40807;SDS011;26523;52.504;13.498;2024-01-15T09:19:33;6.20;;;1.30;;
40807;SDS011;26523;52.504;13.498;2024-01-15T09:21:59;5.53;;;1.30;;
40807;SDS011;26523;52.504;13.498;2024-01-15T09:24:25;8.70;;;0.98;;
40807;SDS011;26523;52.504;13.498;2024-01-15T09:26:51;5.32;;;1.50;;
40807;SDS011;26523;52.504;13.498;2024-01-15T09:29:20;7.00;;;1.20;;
40807;SDS011;26523;52.504;13.498;2024-01-15T09:31:45;2.03;;;1.35;;
40807;SDS011;26523;52.504;13.498;2024-01-15T09:34:12;6.82;;;1.05;;
40807;SDS011;26523;52.504;13.498;2024-01-15T09:36:41;9.50;;;1.23;;
40807;SDS011;26523;52.504;13.498;2024-01-15T09:39:08;8.90;;;1.38;;
40807;SDS011;26523;52.504;13.498;2024-01-15T09:41:37;6.88;;;0.90;;
40807;SDS011;26523;52.504;13.498;2024-01-15T09:44:03;5.20;;;0.98;;
40807;SDS011;26523;52.504;13.498;2024-01-15T09:46:34;6.07;;;1.17;;
40807;SDS011;26523;52.504;13.498;2024-01-15T09:49:01;3.10;;;1.45;;
40807;SDS011;26523;52.504;13.498;2024-01-15T09:51:28;4.65;;;0.95;;
40807;SDS011;26523;52.504;13.498;2024-01-15T09:53:57;4.40;;;0.82;;
40807;SDS011;26523;52.504;13.498;2024-01-15T09:56:23;7.63;;;1.10;;
40807;SDS011;26523;52.504;13.498;2024-01-15T09:58:49;5.28;;;1.90;;
40807;SDS011;26523;52.504;13.498;2024-01-15T10:01:20;9.13;;;1.10;;
40807;SDS011;26523;52.504;13.498;2024-01-15T10:03:49;2.60;;;0.60;;
40807;SDS011;26523;52.504;13.498;2024-01-15T10:06:16;8.25;;;1.30;;
40807;SDS011;26523;52.504;13.498;2024-01-15T10:08:43;2.70;;;1.10;;
40807;SDS011;26523;52.504;13.498;2024-01-15T10:11:13;6.20;;;1.05;;
40807;SDS011;26523;52.504;13.498;2024-01-15T10:13:39;6.53;;;1.70;;
40807;SDS011;26523;52.504;13.498;2024-01-15T10:16:09;1.65;;;0.57;;
40807;SDS011;26523;52.504;13.498;2024-01-15T10:18:38;8.57;;;1.48;;
40807;SDS011;26523;52.504;13.498;2024-01-15T10:21:07;3.10;;;0.80;;
40807;SDS011;26523;52.504;13.498;2024-01-15T10:23:33;3.83;;;1.17;;
40807;SDS011;26523;52.504;13.498;2024-01-15T10:25:59;3.67;;;1.08;;
40807;SDS011;26523;52.504;13.498;2024-01-15T10:28:26;9.45;;;0.98;;
40807;SDS011;26523;52.504;13.498;2024-01-15T10:30:53;1.42;;;0.80;;
40807;SDS011;26523;52.504;13.498;2024-01-15T10:33:24;3.88;;;1.45;;
40807;SDS011;26523;52.504;13.498;2024-01-15T10:35:54;2.78;;;1.27;;
40807;SDS011;26523;52.504;13.498;2024-01-15T10:38:21;3.35;;;0.85;;
40807;SDS011;26523;52.504;13.498;2024-01-15T10:40:51;1.98;;;1.13;;
40807;SDS011;26523;52.504;13.498;2024-01-15T10:43:18;1.33;;;0.80;;
40807;SDS011;26523;52.504;13.498;2024-01-15T10:45:44;4.40;;;1.10;;
40807;SDS011;26523;52.504;13.498;2024-01-15T10:48:11;3.47;;;1.27;;
40807;SDS011;26523;52.504;13.498;2024-01-15T10:50:37;2.70;;;0.93;;
40807;SDS011;26523;52.504;13.498;2024-01-15T10:53:04;3.75;;;1.00;;
40807;SDS011;26523;52.504;13.498;2024-01-15T10:55:31;5.22;;;1.50;;
40807;SDS011;26523;52.504;13.498;2024-01-15T10:57:58;7.90;;;1.45;;
40807;SDS011;26523;52.504;13.498;2024-01-15T11:00:25;2.97;;;1.00;;
40807;SDS011;26523;52.504;13.498;2024-01-15T11:02:52;2.88;;;1.00;;
40807;SDS011;26523;52.504;13.498;2024-01-15T11:05:22;5.30;;;1.10;;
40807;SDS011;26523;52.504;13.498;2024-01-15T11:07:48;2.88;;;0.88;;
40807;SDS011;26523;52.504;13.498;2024-01-15T11:18:31;1.30;;;0.65;;
40807;SDS011;26523;52.504;13.498;2024-01-15T11:23:47;1.77;;;0.52;;
40807;SDS011;26523;52.504;13.498;2024-01-15T11:29:03;1.25;;;0.80;;
40807;SDS011;26523;52.504;13.498;2024-01-15T11:32:13;1.20;;;0.73;;
40807;SDS011;26523;52.504;13.498;2024-01-15T11:34:20;0.85;;;0.40;;
40807;SDS011;26523;52.504;13.498;2024-01-15T11:37:06;3.28;;;0.80;;
40807;SDS011;26523;52.504;13.498;2024-01-15T11:42:12;11.30;;;1.10;;
40807;SDS011;26523;52.504;13.498;2024-01-15T11:44:39;4.60;;;0.70;;
40807;SDS011;26523;52.504;13.498;2024-01-15T11:47:07;2.05;;;0.80;;
40807;SDS011;26523;52.504;13.498;2024-01-15T11:52:16;1.08;;;0.60;;
40807;SDS011;26523;52.504;13.498;2024-01-15T11:54:48;0.65;;;0.50;;
40807;SDS011;26523;52.504;13.498;2024-01-15T12:00:12;2.05;;;0.80;;
40807;SDS011;26523;52.504;13.498;2024-01-15T12:02:39;4.47;;;1.50;;
40807;SDS011;26523;52.504;13.498;2024-01-15T12:05:10;1.52;;;0.77;;
40807;SDS011;26523;52.504;13.498;2024-01-15T12:07:42;6.60;;;1.13;;
40807;SDS011;26523;52.504;13.498;2024-01-15T12:10:09;4.50;;;1.13;;
40807;SDS011;26523;52.504;13.498;2024-01-15T12:15:47;3.67;;;1.50;;
40807;SDS011;26523;52.504;13.498;2024-01-15T12:18:14;5.90;;;1.00;;
40807;SDS011;26523;52.504;13.498;2024-01-15T12:20:43;2.35;;;0.95;;
40807;SDS011;26523;52.504;13.498;2024-01-15T12:23:11;1.38;;;0.93;;
40807;SDS011;26523;52.504;13.498;2024-01-15T12:25:38;1.50;;;0.65;;
40807;SDS011;26523;52.504;13.498;2024-01-15T12:28:05;4.97;;;1.00;;
40807;SDS011;26523;52.504;13.498;2024-01-15T12:30:32;0.90;;;0.55;;
40807;SDS011;26523;52.504;13.498;2024-01-15T12:33:02;3.22;;;1.05;;
40807;SDS011;26523;52.504;13.498;2024-01-15T12:35:31;1.25;;;0.70;;
40807;SDS011;26523;52.504;13.498;2024-01-15T12:38:01;2.88;;;0.80;;
40807;SDS011;26523;52.504;13.498;2024-01-15T12:40:28;2.70;;;1.00;;
40807;SDS011;26523;52.504;13.498;2024-01-15T12:42:55;3.53;;;1.20;;
40807;SDS011;26523;52.504;13.498;2024-01-15T12:45:21;1.27;;;0.95;;
40807;SDS011;26523;52.504;13.498;2024-01-15T12:47:47;1.58;;;0.80;;
40807;SDS011;26523;52.504;13.498;2024-01-15T12:50:13;2.08;;;0.98;;
40807;SDS011;26523;52.504;13.498;2024-01-15T12:52:42;1.15;;;0.75;;
40807;SDS011;26523;52.504;13.498;2024-01-15T12:55:16;2.40;;;0.98;;
40807;SDS011;26523;52.504;13.498;2024-01-15T12:57:42;2.97;;;0.75;;
40807;SDS011;26523;52.504;13.498;2024-01-15T13:00:08;1.27;;;0.60;;
40807;SDS011;26523;52.504;13.498;2024-01-15T13:02:37;3.17;;;1.27;;
40807;SDS011;26523;52.504;13.498;2024-01-15T13:05:05;2.65;;;1.25;;
40807;SDS011;26523;52.504;13.498;2024-01-15T13:07:35;3.13;;;1.20;;
40807;SDS011;26523;52.504;13.498;2024-01-15T13:10:00;1.30;;;0.80;;
40807;SDS011;26523;52.504;13.498;2024-01-15T13:12:27;0.93;;;0.70;;
40807;SDS011;26523;52.504;13.498;2024-01-15T13:14:53;2.03;;;1.05;;
40807;SDS011;26523;52.504;13.498;2024-01-15T13:17:18;9.45;;;0.70;;
40807;SDS011;26523;52.504;13.498;2024-01-15T13:19:46;3.90;;;0.85;;
40807;SDS011;26523;52.504;13.498;2024-01-15T13:22:13;3.22;;;0.70;;
40807;SDS011;26523;52.504;13.498;2024-01-15T13:24:40;1.20;;;0.75;;
40807;SDS011;26523;52.504;13.498;2024-01-15T13:27:07;4.43;;;1.48;;
40807;SDS011;26523;52.504;13.498;2024-01-15T13:29:33;3.10;;;0.80;;
40807;SDS011;26523;52.504;13.498;2024-01-15T13:31:59;1.67;;;0.85;;
40807;SDS011;26523;52.504;13.498;2024-01-15T13:34:25;2.35;;;1.00;;
40807;SDS011;26523;52.504;13.498;2024-01-15T13:36:51;1.95;;;0.88;;
40807;SDS011;26523;52.504;13.498;2024-01-15T13:39:18;1.73;;;0.70;;
40807;SDS011;26523;52.504;13.498;2024-01-15T13:41:48;1.38;;;0.85;;
40807;SDS011;26523;52.504;13.498;2024-01-15T13:44:14;2.22;;;0.80;;
40807;SDS011;26523;52.504;13.498;2024-01-15T13:46:40;2.05;;;0.70;;
40807;SDS011;26523;52.504;13.498;2024-01-15T13:49:08;5.93;;;0.95;;
40807;SDS011;26523;52.504;13.498;2024-01-15T13:51:35;2.53;;;0.77;;
40807;SDS011;26523;52.504;13.498;2024-01-15T13:54:02;3.38;;;0.73;;
40807;SDS011;26523;52.504;13.498;2024-01-15T13:56:32;1.23;;;0.73;;
40807;SDS011;26523;52.504;13.498;2024-01-15T13:59:01;2.45;;;0.93;;
40807;SDS011;26523;52.504;13.498;2024-01-15T14:01:29;1.13;;;0.93;;
40807;SDS011;26523;52.504;13.498;2024-01-15T14:03:55;3.00;;;0.93;;
40807;SDS011;26523;52.504;13.498;2024-01-15T14:06:21;5.70;;;0.90;;
40807;SDS011;26523;52.504;13.498;2024-01-15T14:08:47;2.60;;;0.77;;
40807;SDS011;26523;52.504;13.498;2024-01-15T14:11:12;0.82;;;0.50;;
40807;SDS011;26523;52.504;13.498;2024-01-15T14:13:39;1.88;;;0.90;;
40807;SDS011;26523;52.504;13.498;2024-01-15T14:16:06;1.38;;;0.80;;
40807;SDS011;26523;52.504;13.498;2024-01-15T14:18:34;0.50;;;0.32;;
40807;SDS011;26523;52.504;13.498;2024-01-15T14:21:01;5.13;;;0.73;;
40807;SDS011;26523;52.504;13.498;2024-01-15T14:23:28;1.60;;;0.60;;
40807;SDS011;26523;52.504;13.498;2024-01-15T14:25:54;7.78;;;1.15;;
40807;SDS011;26523;52.504;13.498;2024-01-15T14:28:20;8.70;;;1.05;;
40807;SDS011;26523;52.504;13.498;2024-01-15T14:30:48;3.05;;;0.82;;
40807;SDS011;26523;52.504;13.498;2024-01-15T14:33:14;3.72;;;1.00;;
40807;SDS011;26523;52.504;13.498;2024-01-15T14:35:43;1.88;;;0.73;;
40807;SDS011;26523;52.504;13.498;2024-01-15T14:38:10;3.25;;;0.55;;
40807;SDS011;26523;52.504;13.498;2024-01-15T14:40:36;2.35;;;0.80;;
40807;SDS011;26523;52.504;13.498;2024-01-15T14:43:02;6.22;;;1.00;;
40807;SDS011;26523;52.504;13.498;2024-01-15T14:45:28;1.33;;;0.82;;
40807;SDS011;26523;52.504;13.498;2024-01-15T14:47:55;4.70;;;0.80;;
40807;SDS011;26523;52.504;13.498;2024-01-15T14:50:22;6.95;;;1.25;;
40807;SDS011;26523;52.504;13.498;2024-01-15T14:52:48;1.80;;;0.80;;
40807;SDS011;26523;52.504;13.498;2024-01-15T14:55:14;2.40;;;1.00;;